Time;durP1;ratioP1;P1;durP2;ratioP2;P2;SDS_P1;SDS_P2;PMS_P1;PMS_P2;Temp;Humidity;BMP_temperature;BMP_pressure;BME280_temperature;BME280_humidity;BME280_pressure;Samples;Min_cycle;Max_cycle;Signal;HPM_P1;HPM_P2
2023/06/16 00:00:03;;;;;;;4.35;2.33;;;;;;;;;;5053918;28;20060;-60
2023/06/16 00:02:30;;;;;;;4.47;2.38;;;;;;;;;;5053141;28;20060;-60
2023/06/16 00:04:56;;;;;;;3.30;1.80;;;;;;;;;;5053119;28;20053;-60
2023/06/16 00:07:22;;;;;;;3.55;2.58;;;;;;;;;;5053382;28;20017;-60
2023/06/16 00:09:49;;;;;;;3.38;2.33;;;;;;;;;;5051886;28;20138;-61
2023/06/16 00:12:15;;;;;;;3.30;2.63;;;;;;;;;;5053041;28;20139;-61
2023/06/16 00:14:41;;;;;;;4.20;2.78;;;;;;;;;;5053162;28;20055;-61
2023/06/16 00:17:08;;;;;;;3.97;2.95;;;;;;;;;;5056122;28;20471;-60
2023/06/16 00:19:34;;;;;;;3.63;2.55;;;;;;;;;;5057053;28;20463;-60
2023/06/16 00:22:00;;;;;;;3.45;2.53;;;;;;;;;;5056893;28;20036;-60
2023/06/16 00:24:27;;;;;;;4.28;2.45;;;;;;;;;;5056769;28;20032;-60
2023/06/16 00:26:55;;;;;;;4.00;2.33;;;;;;;;;;5057060;28;20013;-60
2023/06/16 00:29:21;;;;;;;3.15;2.35;;;;;;;;;;5056397;28;20025;-61
2023/06/16 00:31:47;;;;;;;4.85;2.92;;;;;;;;;;5056333;28;20402;-61
2023/06/16 00:34:13;;;;;;;3.03;2.53;;;;;;;;;;5056391;28;20025;-60
2023/06/16 00:36:39;;;;;;;3.80;2.53;;;;;;;;;;5056440;28;20371;-60
2023/06/16 00:39:05;;;;;;;4.20;2.28;;;;;;;;;;5056124;28;20021;-60
2023/06/16 00:41:31;;;;;;;3.35;2.60;;;;;;;;;;5056558;28;20108;-60
2023/06/16 00:43:57;;;;;;;3.20;2.50;;;;;;;;;;5055930;28;20375;-60
2023/06/16 00:46:27;;;;;;;3.70;2.97;;;;;;;;;;5056481;28;20373;-60
2023/06/16 00:48:53;;;;;;;;;;;;;;;;;;5057360;28;20402;-60
2023/06/16 00:51:19;;;;;;;4.05;2.53;;;;;;;;;;5056032;28;19908;-60
2023/06/16 00:53:45;;;;;;;5.22;2.80;;;;;;;;;;5056014;28;20455;-60
2023/06/16 00:56:11;;;;;;;4.30;2.63;;;;;;;;;;5056025;28;20451;-60
2023/06/16 00:58:38;;;;;;;4.82;2.67;;;;;;;;;;5055788;28;20060;-60
2023/06/16 01:01:05;;;;;;;2.67;1.95;;;;;;;;;;5056141;28;20083;-60
2023/06/16 01:03:32;;;;;;;3.10;2.35;;;;;;;;;;5055768;28;20025;-60
2023/06/16 01:06:00;;;;;;;4.47;2.40;;;;;;;;;;5056313;28;20021;-60
2023/06/16 01:08:30;;;;;;;4.35;2.50;;;;;;;;;;5055394;28;20549;-60
2023/06/16 01:11:23;;;;;;;2.53;2.17;;;;;;;;;;5056004;28;20104;-60
2023/06/16 01:13:56;;;;;;;3.53;2.90;;;;;;;;;;5054226;28;20080;-60
2023/06/16 01:16:23;;;;;;;3.92;2.92;;;;;;;;;;5055961;28;20025;-60
2023/06/16 01:18:51;;;;;;;4.10;2.53;;;;;;;;;;5055459;28;20040;-60
2023/06/16 01:21:31;;;;;;;7.72;2.85;;;;;;;;;;5055466;28;20028;-60
2023/06/16 01:24:01;;;;;;;3.55;2.67;;;;;;;;;;5055989;28;20351;-60
2023/06/16 01:26:28;;;;;;;5.05;3.38;;;;;;;;;;5055156;28;20025;-60
2023/06/16 01:28:55;;;;;;;3.63;2.92;;;;;;;;;;5054667;28;20459;-60
2023/06/16 01:31:21;;;;;;;4.00;3.25;;;;;;;;;;5055487;28;20025;-60
2023/06/16 01:33:47;;;;;;;4.13;3.35;;;;;;;;;;5054799;28;20494;-60
2023/06/16 01:36:15;;;;;;;7.40;3.20;;;;;;;;;;5055944;28;20025;-60
2023/06/16 01:38:41;;;;;;;3.67;2.88;;;;;;;;;;5055618;28;20454;-60
2023/06/16 01:41:08;;;;;;;3.92;2.85;;;;;;;;;;5055609;28;20444;-60
2023/06/16 01:43:35;;;;;;;3.30;3.00;;;;;;;;;;5055301;28;20096;-60
2023/06/16 01:46:01;;;;;;;5.68;2.83;;;;;;;;;;5055254;28;20025;-60
2023/06/16 01:48:27;;;;;;;3.70;3.03;;;;;;;;;;5055195;28;20056;-60
2023/06/16 01:50:53;;;;;;;4.47;3.05;;;;;;;;;;5054811;28;20029;-60
2023/06/16 01:53:20;;;;;;;3.95;2.72;;;;;;;;;;5055365;28;20021;-60
2023/06/16 01:55:50;;;;;;;4.50;3.47;;;;;;;;;;5054812;28;20029;-60
2023/06/16 01:58:17;;;;;;;3.00;2.35;;;;;;;;;;5054698;28;20036;-60
2023/06/16 02:00:47;;;;;;;3.53;2.90;;;;;;;;;;5054622;28;20406;-60
2023/06/16 02:03:19;;;;;;;6.38;3.67;;;;;;;;;;5054603;28;20032;-60
2023/06/16 02:05:47;;;;;;;3.42;2.85;;;;;;;;;;5054904;28;20090;-60
2023/06/16 02:08:15;;;;;;;4.43;3.22;;;;;;;;;;5054690;28;20025;-60
2023/06/16 02:10:42;;;;;;;3.85;3.00;;;;;;;;;;5055352;28;20352;-60
2023/06/16 02:13:08;;;;;;;3.90;3.22;;;;;;;;;;5054413;28;20086;-60
2023/06/16 02:15:34;;;;;;;3.20;2.85;;;;;;;;;;5054729;28;20029;-60
2023/06/16 02:18:02;;;;;;;3.92;3.47;;;;;;;;;;5054856;28;20040;-60
2023/06/16 02:20:28;;;;;;;3.78;3.38;;;;;;;;;;5054304;28;20425;-60
2023/06/16 02:22:54;;;;;;;4.18;2.95;;;;;;;;;;5055074;28;20052;-60
2023/06/16 02:25:20;;;;;;;3.47;3.00;;;;;;;;;;5053026;28;20527;-60
2023/06/16 02:27:47;;;;;;;3.95;3.10;;;;;;;;;;5054282;28;20344;-60
2023/06/16 02:30:13;;;;;;;4.60;3.30;;;;;;;;;;5054111;28;20044;-60
2023/06/16 02:32:39;;;;;;;3.95;3.25;;;;;;;;;;5054419;28;20523;-60
2023/06/16 02:35:06;;;;;;;3.45;2.80;;;;;;;;;;5054172;28;20056;-60
2023/06/16 02:37:35;;;;;;;4.18;3.30;;;;;;;;;;5054276;28;20021;-60
2023/06/16 02:40:01;;;;;;;3.88;3.00;;;;;;;;;;5053899;28;20033;-60
2023/06/16 02:42:27;;;;;;;5.07;2.85;;;;;;;;;;5054467;28;20020;-60
2023/06/16 02:44:53;;;;;;;4.20;3.28;;;;;;;;;;5053937;28;20027;-60
2023/06/16 02:47:19;;;;;;;3.78;3.13;;;;;;;;;;5053638;28;20028;-60
2023/06/16 02:49:45;;;;;;;3.92;3.17;;;;;;;;;;5053860;28;20025;-60
2023/06/16 02:52:11;;;;;;;6.22;3.17;;;;;;;;;;5053904;28;20025;-60
2023/06/16 02:54:37;;;;;;;6.25;3.35;;;;;;;;;;5054550;28;20122;-60
2023/06/16 02:57:03;;;;;;;4.70;3.03;;;;;;;;;;5054134;28;20021;-60
2023/06/16 02:59:30;;;;;;;4.63;3.20;;;;;;;;;;5053970;28;20040;-60
2023/06/16 03:01:56;;;;;;;3.88;2.88;;;;;;;;;;5053627;28;20522;-60
2023/06/16 03:04:22;;;;;;;3.55;2.70;;;;;;;;;;5052275;28;20128;-60
2023/06/16 03:06:47;;;;;;;4.15;3.28;;;;;;;;;;5053903;28;20025;-60
2023/06/16 03:09:14;;;;;;;4.68;3.13;;;;;;;;;;5053683;28;20087;-60
2023/06/16 03:11:41;;;;;;;3.42;3.05;;;;;;;;;;5053598;28;20111;-60
2023/06/16 03:14:07;;;;;;;6.32;3.20;;;;;;;;;;5053460;28;20087;-60
2023/06/16 03:16:33;;;;;;;3.78;2.65;;;;;;;;;;5054132;28;20455;-60
2023/06/16 03:18:59;;;;;;;4.95;3.15;;;;;;;;;;5053474;28;20418;-60
2023/06/16 03:21:25;;;;;;;4.10;2.70;;;;;;;;;;5053571;28;20029;-60
2023/06/16 03:23:51;;;;;;;3.78;3.30;;;;;;;;;;5053586;28;20025;-60
2023/06/16 03:26:18;;;;;;;8.73;3.88;;;;;;;;;;5054329;28;20394;-60
2023/06/16 03:28:45;;;;;;;3.33;2.90;;;;;;;;;;5054555;28;20025;-60
2023/06/16 03:31:11;;;;;;;4.65;3.30;;;;;;;;;;5054270;28;20052;-60
2023/06/16 03:33:37;;;;;;;3.70;3.20;;;;;;;;;;5053502;28;20374;-60
2023/06/16 03:36:03;;;;;;;4.90;3.35;;;;;;;;;;5054005;28;20021;-60
2023/06/16 03:38:29;;;;;;;6.25;3.83;;;;;;;;;;5053823;28;20068;-60
2023/06/16 03:40:55;;;;;;;4.57;3.40;;;;;;;;;;5053373;28;20020;-60
2023/06/16 03:43:21;;;;;;;4.18;3.22;;;;;;;;;;5053408;28;20025;-60
2023/06/16 03:45:47;;;;;;;4.57;3.15;;;;;;;;;;5053398;28;20021;-61
2023/06/16 03:48:13;;;;;;;3.05;2.63;;;;;;;;;;5054010;28;20025;-60
2023/06/16 03:50:39;;;;;;;5.97;3.40;;;;;;;;;;5054147;28;20477;-60
2023/06/16 03:53:05;;;;;;;3.95;3.20;;;;;;;;;;5057337;28;20079;-60
2023/06/16 03:55:31;;;;;;;6.88;3.88;;;;;;;;;;5057123;28;20029;-60
2023/06/16 03:57:57;;;;;;;4.38;2.80;;;;;;;;;;5057160;28;20464;-60
2023/06/16 04:00:25;;;;;;;4.25;3.35;;;;;;;;;;5056729;28;20032;-60
2023/06/16 04:02:50;;;;;;;4.43;3.25;;;;;;;;;;5056960;28;20040;-60
2023/06/16 04:05:17;;;;;;;4.57;3.90;;;;;;;;;;5056908;28;20025;-60
2023/06/16 04:07:43;;;;;;;3.35;2.67;;;;;;;;;;5056925;28;20339;-60
2023/06/16 04:10:09;;;;;;;3.50;2.85;;;;;;;;;;5056642;28;20063;-60
2023/06/16 04:12:35;;;;;;;6.57;3.83;;;;;;;;;;5057119;28;20120;-60
2023/06/16 04:15:02;;;;;;;5.20;3.33;;;;;;;;;;5056969;28;20103;-60
2023/06/16 04:17:28;;;;;;;3.47;3.13;;;;;;;;;;5057335;28;20033;-60
2023/06/16 04:19:54;;;;;;;4.18;2.97;;;;;;;;;;5056640;28;20089;-60
2023/06/16 04:22:20;;;;;;;3.90;3.15;;;;;;;;;;5056375;28;20028;-60
2023/06/16 04:24:46;;;;;;;4.55;3.55;;;;;;;;;;5057144;28;20439;-60
2023/06/16 04:27:12;;;;;;;7.40;3.83;;;;;;;;;;5057382;28;20021;-60
2023/06/16 04:29:41;;;;;;;5.13;3.53;;;;;;;;;;5056712;28;20036;-60
2023/06/16 04:32:11;;;;;;;3.88;3.10;;;;;;;;;;5056418;28;20377;-60
2023/06/16 04:34:37;;;;;;;5.15;3.47;;;;;;;;;;5056775;28;20021;-60
2023/06/16 04:37:03;;;;;;;4.50;3.35;;;;;;;;;;5056517;28;20086;-60
2023/06/16 04:39:30;;;;;;;5.88;3.95;;;;;;;;;;5056237;28;20032;-60
2023/06/16 04:41:56;;;;;;;3.80;3.17;;;;;;;;;;5056205;28;20029;-60
2023/06/16 04:44:22;;;;;;;4.15;3.20;;;;;;;;;;5056457;28;20084;-60
2023/06/16 04:46:48;;;;;;;4.15;3.35;;;;;;;;;;5056208;28;20056;-60
2023/06/16 04:49:14;;;;;;;5.13;4.38;;;;;;;;;;5056412;28;20029;-60
2023/06/16 04:51:40;;;;;;;7.05;3.50;;;;;;;;;;5056116;28;20029;-60
2023/06/16 04:54:06;;;;;;;4.00;3.35;;;;;;;;;;5056122;28;20348;-60
2023/06/16 04:56:32;;;;;;;4.68;3.45;;;;;;;;;;5056591;28;20025;-60
2023/06/16 04:58:58;;;;;;;4.07;3.58;;;;;;;;;;5056409;28;20332;-60
2023/06/16 05:01:26;;;;;;;3.70;3.35;;;;;;;;;;5055783;28;20123;-60
2023/06/16 05:03:52;;;;;;;5.38;3.92;;;;;;;;;;5055752;28;20465;-60
2023/06/16 05:06:18;;;;;;;6.05;4.03;;;;;;;;;;5056333;28;20029;-60
2023/06/16 05:08:44;;;;;;;5.72;3.63;;;;;;;;;;5055746;28;20055;-60
2023/06/16 05:11:10;;;;;;;4.50;3.85;;;;;;;;;;5055954;28;20025;-60
2023/06/16 05:13:36;;;;;;;4.40;3.72;;;;;;;;;;5055606;28;20049;-60
2023/06/16 05:16:02;;;;;;;6.20;3.40;;;;;;;;;;5055594;28;20344;-60
2023/06/16 05:18:28;;;;;;;4.13;3.08;;;;;;;;;;5055269;28;20560;-60
2023/06/16 05:20:54;;;;;;;4.35;3.53;;;;;;;;;;5056031;28;20029;-60
2023/06/16 05:23:20;;;;;;;4.20;3.38;;;;;;;;;;5056013;28;20021;-60
2023/06/16 05:25:46;;;;;;;3.80;3.20;;;;;;;;;;5055300;28;20024;-60
2023/06/16 05:28:12;;;;;;;4.65;3.40;;;;;;;;;;5056222;28;20055;-60
2023/06/16 05:30:38;;;;;;;4.60;3.83;;;;;;;;;;5055349;28;20375;-60
2023/06/16 05:33:04;;;;;;;4.70;3.20;;;;;;;;;;5055633;28;20344;-60
2023/06/16 05:35:30;;;;;;;4.82;3.88;;;;;;;;;;5054981;28;20497;-60
2023/06/16 05:37:55;;;;;;;5.20;3.78;;;;;;;;;;5055249;28;20060;-60
2023/06/16 05:40:21;;;;;;;4.97;3.95;;;;;;;;;;5054866;28;20025;-60
2023/06/16 05:42:47;;;;;;;5.78;4.18;;;;;;;;;;5055127;28;20027;-60
2023/06/16 05:45:14;;;;;;;5.85;4.25;;;;;;;;;;5055219;28;20029;-60
2023/06/16 05:47:40;;;;;;;4.85;4.13;;;;;;;;;;5055499;28;20028;-60
2023/06/16 05:50:06;;;;;;;4.40;3.78;;;;;;;;;;5054932;28;20455;-60
2023/06/16 05:52:32;;;;;;;5.90;3.83;;;;;;;;;;5054439;28;20517;-60
2023/06/16 05:54:58;;;;;;;6.22;3.92;;;;;;;;;;5055265;28;20032;-60
2023/06/16 05:57:24;;;;;;;4.90;4.20;;;;;;;;;;5054818;28;20437;-60
2023/06/16 05:59:50;;;;;;;4.35;3.60;;;;;;;;;;5054584;28;20079;-60
2023/06/16 06:02:17;;;;;;;5.57;4.35;;;;;;;;;;5054661;28;20479;-60
2023/06/16 06:04:43;;;;;;;9.00;4.60;;;;;;;;;;5054538;28;20048;-60
2023/06/16 06:07:09;;;;;;;4.22;3.30;;;;;;;;;;5054839;28;20459;-60
2023/06/16 06:09:35;;;;;;;4.10;3.70;;;;;;;;;;5054636;28;20040;-60
2023/06/16 06:12:01;;;;;;;9.15;4.50;;;;;;;;;;5054543;28;20025;-60
2023/06/16 06:14:27;;;;;;;8.68;3.42;;;;;;;;;;5053958;28;20088;-60
2023/06/16 06:16:53;;;;;;;4.13;3.15;;;;;;;;;;5054715;28;20017;-60
2023/06/16 06:19:21;;;;;;;10.75;3.88;;;;;;;;;;5054598;28;20094;-60
2023/06/16 06:21:47;;;;;;;4.93;4.38;;;;;;;;;;5054211;28;20017;-60
2023/06/16 06:24:14;;;;;;;4.93;3.47;;;;;;;;;;5054596;28;20032;-60
2023/06/16 06:26:40;;;;;;;4.57;4.10;;;;;;;;;;5053932;28;20032;-60
2023/06/16 06:29:06;;;;;;;4.95;3.50;;;;;;;;;;5054202;28;20025;-60
2023/06/16 06:31:32;;;;;;;3.33;2.97;;;;;;;;;;5053932;28;20082;-60
2023/06/16 06:33:58;;;;;;;7.05;3.25;;;;;;;;;;5054296;28;20426;-60
2023/06/16 06:36:26;;;;;;;4.25;3.42;;;;;;;;;;5054573;28;20067;-60
2023/06/16 06:38:52;;;;;;;4.55;3.60;;;;;;;;;;5053705;28;20120;-60
2023/06/16 06:41:19;;;;;;;6.05;3.35;;;;;;;;;;5054336;28;20057;-60
2023/06/16 06:43:45;;;;;;;5.05;4.15;;;;;;;;;;5054422;28;20025;-60
2023/06/16 06:46:12;;;;;;;3.80;3.20;;;;;;;;;;5054262;28;20360;-60
2023/06/16 06:48:38;;;;;;;4.32;3.88;;;;;;;;;;5053936;28;20486;-61
2023/06/16 06:51:04;;;;;;;11.32;3.60;;;;;;;;;;5054527;28;20073;-60
2023/06/16 06:53:31;;;;;;;5.30;3.53;;;;;;;;;;5053851;28;20025;-60
2023/06/16 06:55:57;;;;;;;5.43;2.95;;;;;;;;;;5053703;28;20024;-60
2023/06/16 06:58:23;;;;;;;4.82;3.35;;;;;;;;;;5054163;28;20112;-60
2023/06/16 07:00:49;;;;;;;3.95;3.22;;;;;;;;;;5053884;28;20052;-60
2023/06/16 07:03:15;;;;;;;4.55;3.47;;;;;;;;;;5053677;28;20033;-60
2023/06/16 07:05:42;;;;;;;8.50;3.55;;;;;;;;;;5053616;28;20017;-60
2023/06/16 07:08:08;;;;;;;5.10;3.83;;;;;;;;;;5053957;28;20021;-60
2023/06/16 07:10:36;;;;;;;8.60;3.28;;;;;;;;;;5053676;28;20045;-60
2023/06/16 07:13:02;;;;;;;4.05;3.50;;;;;;;;;;5053502;28;20526;-60
2023/06/16 07:15:28;;;;;;;4.85;3.72;;;;;;;;;;5054383;28;20080;-60
2023/06/16 07:17:54;;;;;;;7.43;3.55;;;;;;;;;;5054164;28;20366;-60
2023/06/16 07:20:20;;;;;;;6.00;3.92;;;;;;;;;;5053606;28;20423;-61
2023/06/16 07:22:47;;;;;;;5.30;3.90;;;;;;;;;;5053583;28;20475;-61
2023/06/16 07:25:13;;;;;;;4.63;3.45;;;;;;;;;;5053601;28;20032;-60
2023/06/16 07:27:39;;;;;;;6.95;3.60;;;;;;;;;;5057702;28;20100;-60
2023/06/16 07:30:06;;;;;;;3.42;2.63;;;;;;;;;;5057441;28;20055;-60
2023/06/16 07:32:32;;;;;;;4.22;3.10;;;;;;;;;;5057610;28;20482;-60
2023/06/16 07:34:57;;;;;;;3.97;2.92;;;;;;;;;;5057694;28;20064;-61
2023/06/16 07:37:23;;;;;;;3.00;2.42;;;;;;;;;;5058426;28;20018;-61
2023/06/16 07:39:49;;;;;;;4.15;2.72;;;;;;;;;;5057390;28;20520;-61
2023/06/16 07:42:16;;;;;;;4.38;3.25;;;;;;;;;;5057267;28;20017;-61
2023/06/16 07:44:42;;;;;;;4.15;2.88;;;;;;;;;;5057653;28;20049;-61
2023/06/16 07:47:08;;;;;;;3.15;2.63;;;;;;;;;;5057086;28;20497;-61
2023/06/16 07:49:34;;;;;;;2.75;2.35;;;;;;;;;;5057342;28;20108;-61
2023/06/16 07:52:00;;;;;;;7.70;3.30;;;;;;;;;;5058054;28;20108;-61
2023/06/16 07:54:26;;;;;;;4.85;2.78;;;;;;;;;;5056944;28;20439;-61
2023/06/16 07:56:52;;;;;;;7.45;2.85;;;;;;;;;;5057390;28;20055;-61
2023/06/16 07:59:18;;;;;;;3.47;2.88;;;;;;;;;;5057029;28;20033;-59
2023/06/16 08:01:44;;;;;;;3.38;2.35;;;;;;;;;;5057071;28;20025;-59
2023/06/16 08:04:11;;;;;;;3.45;2.63;;;;;;;;;;5057515;28;20029;-59
2023/06/16 08:06:36;;;;;;;5.70;3.42;;;;;;;;;;5056906;28;20021;-59
2023/06/16 08:09:03;;;;;;;3.97;3.30;;;;;;;;;;5056862;28;20025;-60
2023/06/16 08:11:30;;;;;;;3.90;2.55;;;;;;;;;;5056870;28;20025;-60
2023/06/16 08:13:56;;;;;;;4.25;3.00;;;;;;;;;;5056956;28;20053;-61
2023/06/16 08:16:22;;;;;;;4.97;3.85;;;;;;;;;;5057095;28;20048;-61
2023/06/16 08:18:47;;;;;;;3.97;2.67;;;;;;;;;;5057071;28;20037;-61
2023/06/16 08:21:13;;;;;;;4.18;3.03;;;;;;;;;;5056668;28;20532;-60
2023/06/16 08:23:39;;;;;;;3.47;2.58;;;;;;;;;;5056684;28;20363;-61
2023/06/16 08:26:06;;;;;;;3.75;3.03;;;;;;;;;;5057023;28;20067;-60
2023/06/16 08:28:31;;;;;;;6.13;2.75;;;;;;;;;;5056535;28;20024;-60
2023/06/16 08:30:57;;;;;;;4.38;2.40;;;;;;;;;;5056465;28;20021;-60
2023/06/16 08:33:24;;;;;;;4.32;3.05;;;;;;;;;;5056169;28;20017;-60
2023/06/16 08:35:50;;;;;;;5.07;2.53;;;;;;;;;;5057182;28;20029;-60
2023/06/16 08:38:16;;;;;;;4.05;2.42;;;;;;;;;;5055848;28;20033;-60
2023/06/16 08:40:43;;;;;;;3.78;2.67;;;;;;;;;;5056304;28;20115;-60
2023/06/16 08:43:11;;;;;;;3.45;2.53;;;;;;;;;;5056753;28;20028;-60
2023/06/16 08:45:38;;;;;;;3.58;2.72;;;;;;;;;;5056268;28;20033;-60
2023/06/16 08:48:05;;;;;;;3.17;2.65;;;;;;;;;;5056241;28;20032;-60
2023/06/16 08:50:32;;;;;;;4.72;2.70;;;;;;;;;;5056606;28;20108;-60
2023/06/16 08:53:00;;;;;;;4.80;2.78;;;;;;;;;;5056073;28;20053;-60
2023/06/16 08:55:29;;;;;;;3.47;2.60;;;;;;;;;;5056875;28;20025;-60
2023/06/16 08:57:56;;;;;;;6.90;3.08;;;;;;;;;;5056830;28;20065;-60
2023/06/16 09:00:22;;;;;;;4.32;3.03;;;;;;;;;;5055989;28;20028;-60
2023/06/16 09:02:49;;;;;;;4.90;2.17;;;;;;;;;;5056325;28;20029;-60
2023/06/16 09:05:16;;;;;;;5.68;2.95;;;;;;;;;;5055741;28;20057;-60
2023/06/16 09:07:43;;;;;;;2.70;2.17;;;;;;;;;;5055823;28;20029;-60
2023/06/16 09:10:10;;;;;;;3.78;2.35;;;;;;;;;;5055690;28;20536;-61
2023/06/16 09:12:36;;;;;;;3.42;2.60;;;;;;;;;;5056529;28;20031;-60
2023/06/16 09:15:06;;;;;;;4.57;2.97;;;;;;;;;;5055693;28;20390;-60
2023/06/16 09:17:33;;;;;;;3.67;2.50;;;;;;;;;;5056441;28;20032;-60
2023/06/16 09:20:00;;;;;;;5.05;2.70;;;;;;;;;;5055318;28;20368;-60
2023/06/16 09:22:26;;;;;;;5.88;2.97;;;;;;;;;;5055545;28;20032;-60
2023/06/16 09:24:59;;;;;;;3.35;2.85;;;;;;;;;;5055193;28;20468;-60
2023/06/16 09:27:29;;;;;;;3.30;2.67;;;;;;;;;;5055155;28;20025;-60
2023/06/16 09:29:59;;;;;;;2.85;2.20;;;;;;;;;;5055679;28;20039;-60
2023/06/16 09:32:25;;;;;;;3.17;2.65;;;;;;;;;;5055643;28;20114;-60
2023/06/16 09:34:51;;;;;;;5.70;2.75;;;;;;;;;;5055769;28;20029;-60
2023/06/16 09:37:20;;;;;;;3.15;2.10;;;;;;;;;;5055907;28;20051;-60
2023/06/16 09:39:46;;;;;;;3.83;2.17;;;;;;;;;;5055181;28;20033;-60
2023/06/16 09:42:13;;;;;;;5.45;2.45;;;;;;;;;;5055186;28;20025;-60
2023/06/16 09:44:41;;;;;;;3.75;2.47;;;;;;;;;;5054919;28;20466;-60
2023/06/16 09:47:07;;;;;;;3.42;2.72;;;;;;;;;;5055579;28;20082;-60
2023/06/16 09:49:33;;;;;;;3.83;2.53;;;;;;;;;;5054127;28;20020;-60
2023/06/16 09:51:59;;;;;;;3.47;2.58;;;;;;;;;;5055351;28;20521;-60
2023/06/16 09:54:27;;;;;;;3.15;2.63;;;;;;;;;;5054675;28;20051;-60
2023/06/16 09:56:56;;;;;;;3.30;2.75;;;;;;;;;;5055448;28;20025;-60
2023/06/16 09:59:23;;;;;;;3.63;2.70;;;;;;;;;;5054687;28;20033;-60
2023/06/16 10:01:50;;;;;;;3.47;2.60;;;;;;;;;;5054660;28;20031;-60
2023/06/16 10:04:17;;;;;;;3.33;2.25;;;;;;;;;;5055098;28;20029;-60
2023/06/16 10:06:48;;;;;;;4.65;2.70;;;;;;;;;;5054747;28;20033;-60
2023/06/16 10:09:17;;;;;;;4.38;2.80;;;;;;;;;;5055145;28;20060;-60
2023/06/16 10:11:44;;;;;;;4.60;2.47;;;;;;;;;;5055027;28;20032;-60
2023/06/16 10:14:10;;;;;;;3.13;2.55;;;;;;;;;;5054082;28;20045;-60
2023/06/16 10:16:37;;;;;;;3.83;2.45;;;;;;;;;;5054277;28;20494;-60
2023/06/16 10:19:05;;;;;;;6.03;2.70;;;;;;;;;;5054598;28;20029;-60
2023/06/16 10:21:31;;;;;;;6.50;3.03;;;;;;;;;;5054275;28;20067;-61
2023/06/16 10:23:57;;;;;;;3.78;2.80;;;;;;;;;;5054320;28;20467;-60
2023/06/16 10:26:23;;;;;;;3.15;2.53;;;;;;;;;;5054924;28;20052;-60
2023/06/16 10:28:50;;;;;;;4.55;3.10;;;;;;;;;;5054274;28;20052;-60
2023/06/16 10:31:18;;;;;;;5.07;2.45;;;;;;;;;;5055041;28;20032;-60
2023/06/16 10:33:54;;;;;;;3.28;2.47;;;;;;;;;;5054711;28;20025;-60
2023/06/16 10:36:24;;;;;;;2.95;2.13;;;;;;;;;;5054145;28;20021;-60
2023/06/16 10:38:55;;;;;;;3.55;2.22;;;;;;;;;;5054248;28;20033;-61
2023/06/16 10:41:21;;;;;;;3.63;2.83;;;;;;;;;;5054016;28;20036;-61
2023/06/16 10:43:47;;;;;;;3.60;2.78;;;;;;;;;;5054073;28;20032;-61
2023/06/16 10:46:13;;;;;;;4.25;2.88;;;;;;;;;;5054872;28;20021;-60
2023/06/16 10:48:56;;;;;;;3.88;2.35;;;;;;;;;;5053928;28;20035;-60
2023/06/16 10:51:40;;;;;;;4.32;2.88;;;;;;;;;;5054440;28;20027;-60
2023/06/16 10:54:08;;;;;;;3.92;2.95;;;;;;;;;;5054553;28;20017;-60
2023/06/16 10:56:53;;;;;;;3.42;2.47;;;;;;;;;;5053886;28;20025;-60
2023/06/16 10:59:18;;;;;;;3.17;2.60;;;;;;;;;;5053469;28;20044;-60
2023/06/16 11:01:47;;;;;;;4.05;3.13;;;;;;;;;;5053618;28;20387;-60
2023/06/16 11:04:15;;;;;;;4.22;2.78;;;;;;;;;;5054066;28;20024;-60
2023/06/16 11:07:04;;;;;;;4.38;3.25;;;;;;;;;;5053978;28;20025;-60
2023/06/16 11:09:30;;;;;;;4.03;2.75;;;;;;;;;;5053911;28;20029;-60
2023/06/16 11:12:00;;;;;;;3.65;2.58;;;;;;;;;;5053476;28;20114;-60
2023/06/16 11:14:26;;;;;;;3.08;2.55;;;;;;;;;;5053680;28;20103;-61
2023/06/16 11:16:52;;;;;;;6.20;2.67;;;;;;;;;;5053737;28;20021;-60
2023/06/16 11:19:18;;;;;;;4.20;2.80;;;;;;;;;;5053550;28;20039;-61
2023/06/16 11:21:45;;;;;;;3.78;2.80;;;;;;;;;;5053620;28;20025;-60
2023/06/16 11:24:11;;;;;;;7.03;2.90;;;;;;;;;;5053578;28;20025;-60
2023/06/16 11:26:37;;;;;;;3.78;2.72;;;;;;;;;;5054040;28;20064;-60
2023/06/16 11:29:07;;;;;;;2.85;2.17;;;;;;;;;;5053567;28;20037;-60
2023/06/16 11:31:37;;;;;;;3.53;2.28;;;;;;;;;;5053760;28;20056;-60
2023/06/16 11:34:03;;;;;;;4.93;2.80;;;;;;;;;;5054074;28;20033;-60
2023/06/16 11:36:30;;;;;;;4.05;3.03;;;;;;;;;;5054306;28;20021;-60
2023/06/16 11:38:56;;;;;;;3.63;2.63;;;;;;;;;;5053805;28;20040;-60
2023/06/16 11:41:23;;;;;;;4.38;2.85;;;;;;;;;;5053454;28;20082;-60
2023/06/16 11:43:53;;;;;;;3.13;2.70;;;;;;;;;;5053450;28;20017;-60
2023/06/16 11:46:21;;;;;;;3.60;2.80;;;;;;;;;;5053993;28;20026;-60
2023/06/16 11:48:47;;;;;;;2.85;2.17;;;;;;;;;;5053663;28;20478;-60
2023/06/16 11:51:16;;;;;;;4.10;2.13;;;;;;;;;;5053444;28;20026;-60
2023/06/16 11:53:42;;;;;;;3.67;2.97;;;;;;;;;;5053612;28;20371;-61
2023/06/16 11:56:09;;;;;;;2.85;2.55;;;;;;;;;;5053561;28;20025;-60
2023/06/16 11:58:35;;;;;;;6.10;3.03;;;;;;;;;;5053938;28;20471;-60
2023/06/16 12:01:01;;;;;;;11.15;3.30;;;;;;;;;;5053757;28;20032;-61
2023/06/16 12:03:29;;;;;;;3.65;2.97;;;;;;;;;;5053174;28;20037;-61
2023/06/16 12:05:56;;;;;;;7.80;2.63;;;;;;;;;;5053391;28;20025;-60
2023/06/16 12:08:55;;;;;;;4.80;3.58;;;;;;;;;;5053593;28;20029;-61
2023/06/16 12:11:28;;;;;;;4.10;3.22;;;;;;;;;;5041564;28;20418;-61
2023/06/16 12:13:55;;;;;;;3.90;2.78;;;;;;;;;;5056922;28;20041;-60
2023/06/16 12:16:21;;;;;;;5.22;2.72;;;;;;;;;;5057372;28;20104;-61
2023/06/16 12:18:51;;;;;;;3.85;2.53;;;;;;;;;;5056682;28;20048;-60
2023/06/16 12:21:21;;;;;;;3.60;3.13;;;;;;;;;;5057280;28;20241;-61
2023/06/16 12:23:54;;;;;;;5.13;3.30;;;;;;;;;;5056914;28;20029;-60
2023/06/16 12:26:29;;;;;;;3.70;2.97;;;;;;;;;;5057130;28;20028;-60
2023/06/16 12:28:56;;;;;;;7.05;3.55;;;;;;;;;;5056482;28;20025;-60
2023/06/16 12:31:26;;;;;;;3.05;2.45;;;;;;;;;;5056520;28;20021;-61
2023/06/16 12:33:52;;;;;;;5.60;2.75;;;;;;;;;;5056545;28;20023;-61
2023/06/16 12:36:18;;;;;;;6.95;2.83;;;;;;;;;;5057066;28;20352;-60
2023/06/16 12:38:44;;;;;;;5.55;3.10;;;;;;;;;;5056402;28;20120;-61
2023/06/16 12:41:14;;;;;;;6.07;3.05;;;;;;;;;;5056523;28;20116;-61
2023/06/16 12:43:47;;;;;;;5.18;3.15;;;;;;;;;;5056304;28;20525;-61
2023/06/16 12:46:13;;;;;;;3.90;3.10;;;;;;;;;;5056552;28;20128;-60
2023/06/16 12:48:39;;;;;;;3.88;2.97;;;;;;;;;;5056230;28;20025;-61
2023/06/16 12:51:05;;;;;;;3.97;2.60;;;;;;;;;;5056406;28;20336;-61
2023/06/16 12:53:31;;;;;;;5.43;3.22;;;;;;;;;;5056072;28;20028;-61
2023/06/16 12:55:57;;;;;;;3.25;2.92;;;;;;;;;;5055999;28;20028;-61
2023/06/16 12:58:23;;;;;;;2.85;2.45;;;;;;;;;;5055938;28;20037;-61
2023/06/16 13:00:49;;;;;;;4.47;3.42;;;;;;;;;;5056252;28;20083;-61
2023/06/16 13:03:15;;;;;;;5.13;3.00;;;;;;;;;;5055931;28;20028;-60
2023/06/16 13:05:41;;;;;;;3.63;3.10;;;;;;;;;;5055794;28;20032;-61
2023/06/16 13:08:07;;;;;;;5.22;3.45;;;;;;;;;;5056252;28;20025;-61
2023/06/16 13:10:33;;;;;;;7.20;3.42;;;;;;;;;;5056091;28;20029;-60
2023/06/16 13:12:59;;;;;;;4.82;3.45;;;;;;;;;;5055692;28;20021;-61
2023/06/16 13:15:25;;;;;;;5.03;3.40;;;;;;;;;;5056242;28;20048;-61
2023/06/16 13:17:51;;;;;;;4.07;3.47;;;;;;;;;;5055549;28;20071;-61
2023/06/16 13:20:17;;;;;;;3.63;2.72;;;;;;;;;;5055988;28;20021;-61
2023/06/16 13:22:43;;;;;;;4.93;3.10;;;;;;;;;;5055266;28;20092;-61
2023/06/16 13:25:09;;;;;;;4.00;3.28;;;;;;;;;;5055587;28;20028;-60
2023/06/16 13:27:35;;;;;;;4.57;4.18;;;;;;;;;;5055848;28;20025;-61
2023/06/16 13:30:01;;;;;;;5.65;3.53;;;;;;;;;;5055401;28;20382;-61
2023/06/16 13:32:27;;;;;;;4.65;3.28;;;;;;;;;;5055736;28;20113;-61
2023/06/16 13:34:53;;;;;;;5.32;3.38;;;;;;;;;;5054833;28;20040;-61
2023/06/16 13:37:19;;;;;;;5.45;3.58;;;;;;;;;;5055819;28;20067;-60
2023/06/16 13:39:45;;;;;;;4.78;3.35;;;;;;;;;;5055605;28;20036;-61
2023/06/16 13:42:11;;;;;;;7.13;3.78;;;;;;;;;;5055603;28;20013;-61
2023/06/16 13:44:37;;;;;;;4.88;3.30;;;;;;;;;;5055620;28;20451;-61
2023/06/16 13:47:03;;;;;;;5.10;3.80;;;;;;;;;;5055431;28;20412;-60
2023/06/16 13:49:29;;;;;;;5.05;4.18;;;;;;;;;;5055324;28;20036;-61
2023/06/16 13:51:55;;;;;;;4.65;3.75;;;;;;;;;;5055001;28;20450;-61
2023/06/16 13:54:21;;;;;;;4.82;3.25;;;;;;;;;;5055546;28;20025;-61
2023/06/16 13:56:48;;;;;;;4.45;4.00;;;;;;;;;;5055710;28;20444;-61
2023/06/16 13:59:14;;;;;;;4.00;3.15;;;;;;;;;;5054736;28;20032;-61
2023/06/16 14:01:40;;;;;;;3.97;3.05;;;;;;;;;;5054699;28;20135;-61
2023/06/16 14:04:06;;;;;;;6.78;3.55;;;;;;;;;;5054429;28;20093;-61
2023/06/16 14:06:32;;;;;;;4.68;3.17;;;;;;;;;;5054885;28;20013;-61
2023/06/16 14:08:59;;;;;;;4.50;2.67;;;;;;;;;;5054630;28;20024;-61
2023/06/16 14:11:25;;;;;;;3.85;2.83;;;;;;;;;;5054618;28;20062;-61
2023/06/16 14:13:51;;;;;;;8.68;3.55;;;;;;;;;;5054713;28;20049;-61
2023/06/16 14:16:17;;;;;;;4.28;3.25;;;;;;;;;;5054402;28;20159;-61
2023/06/16 14:18:43;;;;;;;3.20;2.75;;;;;;;;;;5054348;28;20119;-61
2023/06/16 14:21:10;;;;;;;4.80;3.42;;;;;;;;;;5055163;28;20048;-60
2023/06/16 14:23:36;;;;;;;4.05;3.35;;;;;;;;;;5054394;28;20017;-61
2023/06/16 14:26:02;;;;;;;6.93;2.92;;;;;;;;;;5054693;28;20047;-61
2023/06/16 14:28:28;;;;;;;3.20;2.90;;;;;;;;;;5054324;28;20035;-61
2023/06/16 14:30:54;;;;;;;3.80;3.05;;;;;;;;;;5054881;28;20032;-61
2023/06/16 14:33:20;;;;;;;5.60;3.40;;;;;;;;;;5054272;28;20052;-61
2023/06/16 14:35:46;;;;;;;4.20;3.17;;;;;;;;;;5053750;28;20428;-61
2023/06/16 14:38:13;;;;;;;3.67;2.70;;;;;;;;;;5054139;28;20060;-61
2023/06/16 14:40:39;;;;;;;3.80;2.88;;;;;;;;;;5054134;28;20414;-61